Terminal Aerodrome Forecast
Issued by NWS

Home | Current Version | Previous Version | Graphics & Text | Print | Product List | Glossary On
Versions: 1 2 3 4 5 6 7 8 9 10 11 12 13 14 15 16 17 18 19 20 21 22 23 24 25 26 27
000
FTUS43 KLOT 221131
TAFDPA
TAF
KDPA 221131Z 2212/2312 23010KT P6SM FEW250
     FM221500 23015G23KT P6SM SCT100 BKN250
     FM222100 23015G23KT 6SM -SHRA VCTS BKN050CB BKN100
      TEMPO 2221/2224 5SM -SHRA BKN050
     FM230000 22014G21KT 6SM -SHRA BKN050
     FM230300 22010KT P6SM VCSH SCT025 BKN040
     FM230800 22007KT P6SM SCT020 OVC040=

USA.gov is the U.S. government's official web portal to all federal, state and local government web resources and services.